createdAt,value
2023-05-05T00:02:01.727Z,96.30
2023-05-05T00:04:28.639Z,96.40
2023-05-05T00:06:55.272Z,96.50
2023-05-05T00:09:24.121Z,96.70
2023-05-05T00:11:50.788Z,97.00
2023-05-05T00:14:17.438Z,96.90
2023-05-05T00:16:44.291Z,97.10
2023-05-05T00:19:15.738Z,97.10
2023-05-05T00:21:47.124Z,97.30
2023-05-05T00:24:16.348Z,97.90
2023-05-05T00:26:42.957Z,98.20
2023-05-05T00:29:11.760Z,98.30
2023-05-05T00:31:40.977Z,98.40
2023-05-05T00:34:10.117Z,98.50
2023-05-05T00:36:39.237Z,98.90
2023-05-05T00:39:10.853Z,99.30
2023-05-05T00:41:40.761Z,99.50
2023-05-05T00:44:07.424Z,99.50
2023-05-05T00:46:35.268Z,99.70
2023-05-05T00:49:04.358Z,99.70
2023-05-05T00:51:31.912Z,99.80
2023-05-05T00:53:58.549Z,99.90
2023-05-05T00:56:27.246Z,99.90
2023-05-05T00:58:54.034Z,99.90
2023-05-05T01:01:20.685Z,99.90
2023-05-05T01:03:47.405Z,99.90
2023-05-05T01:06:45.215Z,99.90
2023-05-05T01:09:32.320Z,99.90
2023-05-05T01:12:36.613Z,99.90
2023-05-05T01:15:21.824Z,99.90
2023-05-05T01:18:30.224Z,99.90
2023-05-05T01:21:24.279Z,99.90
2023-05-05T01:23:53.987Z,99.90
2023-05-05T01:26:57.403Z,99.90
2023-05-05T01:30:02.084Z,99.90
2023-05-05T01:32:38.023Z,99.90
2023-05-05T01:35:20.240Z,99.90
2023-05-05T01:37:57.414Z,99.90
2023-05-05T01:40:27.779Z,99.90
2023-05-05T01:42:55.908Z,99.90
2023-05-05T01:45:25.778Z,99.90
2023-05-05T01:47:57.168Z,99.90
2023-05-05T01:50:28.003Z,99.90
2023-05-05T01:52:58.865Z,99.90
2023-05-05T01:55:27.937Z,99.90
2023-05-05T01:57:58.614Z,99.90
2023-05-05T02:00:26.981Z,99.90
2023-05-05T02:02:57.411Z,99.90
2023-05-05T02:05:27.441Z,99.90
2023-05-05T02:07:58.974Z,99.90
2023-05-05T02:10:28.997Z,99.90
2023-05-05T02:12:57.046Z,99.90
2023-05-05T02:15:24.948Z,99.90
2023-05-05T02:17:52.891Z,99.90
2023-05-05T02:20:26.656Z,99.90
2023-05-05T02:22:54.017Z,99.90
2023-05-05T02:25:32.276Z,99.90
2023-05-05T02:28:03.598Z,99.90
2023-05-05T02:30:34.719Z,99.90
2023-05-05T02:33:09.475Z,99.90
2023-05-05T02:35:40.974Z,99.90
2023-05-05T02:38:17.180Z,99.90
2023-05-05T02:40:46.561Z,99.90
2023-05-05T02:43:19.482Z,99.90
2023-05-05T02:45:47.887Z,99.90
2023-05-05T02:48:17.197Z,99.90
2023-05-05T02:50:43.898Z,99.90
2023-05-05T02:53:13.295Z,99.90
2023-05-05T02:55:49.785Z,99.90
2023-05-05T02:58:26.462Z,99.90
2023-05-05T03:01:08.517Z,99.90
2023-05-05T03:03:59.359Z,99.90
2023-05-05T03:06:28.364Z,99.90
2023-05-05T03:09:03.611Z,99.90
2023-05-05T03:11:38.685Z,99.90
2023-05-05T03:14:13.564Z,99.90
2023-05-05T03:16:43.659Z,99.90
2023-05-05T03:19:13.078Z,99.90
2023-05-05T03:21:42.528Z,99.90
2023-05-05T03:24:20.046Z,99.90
2023-05-05T03:26:48.121Z,99.90
2023-05-05T03:29:15.777Z,99.90
2023-05-05T03:31:42.658Z,99.90
2023-05-05T03:34:09.417Z,99.90
2023-05-05T03:36:38.706Z,99.90
2023-05-05T03:39:05.379Z,99.90
2023-05-05T03:41:37.060Z,99.90
2023-05-05T03:44:06.548Z,99.90
2023-05-05T03:46:33.259Z,99.90
2023-05-05T03:48:59.951Z,99.90
2023-05-05T03:51:26.789Z,99.90
2023-05-05T03:53:55.750Z,99.90
2023-05-05T03:56:24.927Z,99.90
2023-05-05T03:58:53.850Z,99.90
2023-05-05T04:01:20.765Z,99.90
2023-05-05T04:03:47.862Z,99.90
2023-05-05T04:06:14.696Z,99.90
2023-05-05T04:08:43.864Z,99.90
2023-05-05T04:11:10.714Z,99.90
2023-05-05T04:13:37.313Z,99.90
2023-05-05T04:16:06.786Z,99.90
2023-05-05T04:18:33.483Z,99.90
2023-05-05T04:21:00.717Z,99.90
2023-05-05T04:23:32.040Z,99.90
2023-05-05T04:26:00.924Z,99.90
2023-05-05T04:28:32.466Z,99.90
2023-05-05T04:31:01.030Z,99.90
2023-05-05T04:33:27.817Z,99.90
2023-05-05T04:35:54.449Z,99.90
2023-05-05T04:38:21.323Z,99.90
2023-05-05T04:40:52.461Z,99.90
2023-05-05T04:43:19.770Z,99.90
2023-05-05T04:45:55.287Z,99.90
2023-05-05T04:48:24.075Z,99.90
2023-05-05T04:50:51.268Z,99.90
2023-05-05T04:53:18.010Z,99.90
2023-05-05T04:55:44.757Z,99.90
2023-05-05T04:58:11.433Z,99.90
2023-05-05T05:00:40.290Z,99.90
2023-05-05T05:03:08.125Z,99.90
2023-05-05T05:05:34.876Z,99.90
2023-05-05T05:08:01.551Z,99.90
2023-05-05T05:10:30.405Z,99.90
2023-05-05T05:12:59.586Z,99.90
2023-05-05T05:15:28.545Z,99.90
2023-05-05T05:17:55.188Z,99.90
2023-05-05T05:20:21.832Z,99.90
2023-05-05T05:22:48.669Z,99.90
2023-05-05T05:25:15.434Z,99.90
2023-05-05T05:27:44.772Z,99.90
2023-05-05T05:30:16.278Z,99.90
2023-05-05T05:32:42.970Z,99.90
2023-05-05T05:35:12.254Z,99.90
2023-05-05T05:37:38.935Z,99.90
2023-05-05T05:40:08.544Z,99.90
2023-05-05T05:42:37.886Z,99.90
2023-05-05T05:45:07.365Z,99.90
2023-05-05T05:47:34.002Z,99.90
2023-05-05T05:50:04.719Z,99.90
2023-05-05T05:52:31.396Z,99.90
2023-05-05T05:55:00.543Z,99.90
2023-05-05T05:57:29.365Z,99.90
2023-05-05T05:59:56.462Z,99.90
2023-05-05T06:02:23.162Z,99.90
2023-05-05T06:04:52.652Z,99.90
2023-05-05T06:07:19.613Z,99.90
2023-05-05T06:09:46.373Z,99.90
2023-05-05T06:12:15.546Z,99.90
2023-05-05T06:14:42.307Z,99.90
2023-05-05T06:17:09.013Z,99.90
2023-05-05T06:19:39.264Z,99.90
2023-05-05T06:22:08.133Z,99.90
2023-05-05T06:24:34.817Z,99.90
2023-05-05T06:27:02.341Z,99.90
2023-05-05T06:29:29.018Z,99.90
2023-05-05T06:31:55.714Z,99.90
2023-05-05T06:34:24.571Z,99.90
2023-05-05T06:36:53.970Z,99.90
2023-05-05T06:39:20.798Z,99.90
2023-05-05T06:41:49.915Z,99.90
2023-05-05T06:44:16.559Z,99.90
2023-05-05T06:46:43.623Z,99.90
2023-05-05T06:49:10.386Z,99.90
2023-05-05T06:51:37.044Z,99.90
2023-05-05T06:54:06.085Z,99.90
2023-05-05T06:56:32.747Z,99.90
2023-05-05T06:58:59.421Z,99.90
2023-05-05T07:01:26.145Z,99.90
2023-05-05T07:03:55.077Z,99.90
2023-05-05T07:06:22.111Z,99.90
2023-05-05T07:08:48.797Z,99.90
2023-05-05T07:11:15.653Z,99.90
2023-05-05T07:13:44.764Z,99.90
2023-05-05T07:16:11.424Z,99.90
2023-05-05T07:18:38.140Z,99.90
2023-05-05T07:21:06.511Z,99.90
2023-05-05T07:23:34.110Z,99.90
2023-05-05T07:26:00.879Z,99.90
2023-05-05T07:28:27.565Z,99.90
2023-05-05T07:30:56.412Z,99.90
2023-05-05T07:33:23.060Z,99.90
2023-05-05T07:35:49.700Z,99.90
2023-05-05T07:38:18.555Z,99.90
2023-05-05T07:40:47.449Z,99.90
2023-05-05T07:43:18.872Z,99.90
2023-05-05T07:45:45.580Z,99.90
2023-05-05T07:48:12.311Z,99.90
2023-05-05T07:50:38.987Z,99.90
2023-05-05T07:53:13.530Z,99.90
2023-05-05T07:55:41.459Z,99.90
2023-05-05T07:58:08.513Z,99.90
2023-05-05T08:00:35.509Z,99.90
2023-05-05T08:03:03.499Z,99.90
2023-05-05T08:05:32.297Z,99.90
2023-05-05T08:08:01.311Z,99.90
2023-05-05T08:10:30.122Z,99.90
2023-05-05T08:12:56.775Z,99.90
2023-05-05T08:15:25.736Z,99.90
2023-05-05T08:17:58.656Z,99.90
2023-05-05T08:20:28.747Z,99.90
2023-05-05T08:22:55.557Z,99.90
2023-05-05T08:25:22.489Z,99.90
2023-05-05T08:27:51.509Z,99.90
2023-05-05T08:30:20.875Z,99.90
2023-05-05T08:32:47.566Z,99.90
2023-05-05T08:35:16.528Z,99.90
2023-05-05T08:37:46.053Z,99.90
2023-05-05T08:40:15.691Z,99.90
2023-05-05T08:42:44.480Z,99.90
2023-05-05T08:45:11.828Z,99.90
2023-05-05T08:47:43.065Z,99.90
2023-05-05T08:50:11.187Z,99.90
2023-05-05T08:52:44.380Z,99.90
2023-05-05T08:55:24.039Z,99.90
2023-05-05T08:57:54.647Z,99.90
2023-05-05T09:00:22.131Z,99.90
2023-05-05T09:02:52.518Z,99.30
2023-05-05T09:05:19.285Z,99.00
2023-05-05T09:07:47.130Z,98.80
2023-05-05T09:10:17.106Z,98.80
2023-05-05T09:12:46.558Z,98.90
2023-05-05T09:15:14.952Z,99.10
2023-05-05T09:17:42.265Z,99.40
2023-05-05T09:20:13.452Z,99.70
2023-05-05T09:22:44.224Z,99.70
2023-05-05T09:25:12.720Z,99.30
2023-05-05T09:27:47.535Z,99.00
2023-05-05T09:30:23.232Z,99.00
2023-05-05T09:32:54.687Z,99.20
2023-05-05T09:35:22.759Z,99.60
2023-05-05T09:37:54.209Z,99.50
2023-05-05T09:40:24.104Z,99.30
2023-05-05T09:43:01.736Z,99.10
2023-05-05T09:45:30.890Z,99.40
2023-05-05T09:48:00.201Z,98.70
2023-05-05T09:50:30.982Z,98.70
2023-05-05T09:52:58.990Z,99.00
2023-05-05T09:55:25.903Z,99.10
2023-05-05T09:57:52.640Z,99.00
2023-05-05T10:00:22.026Z,98.90
2023-05-05T10:02:48.711Z,98.90
2023-05-05T10:05:17.384Z,98.50
2023-05-05T10:07:47.713Z,98.20
2023-05-05T10:10:17.186Z,98.00
2023-05-05T10:12:45.916Z,97.70
2023-05-05T10:15:15.032Z,97.20
2023-05-05T10:18:06.964Z,96.10
2023-05-05T10:20:37.882Z,95.90
2023-05-05T10:23:08.008Z,96.10
2023-05-05T10:25:49.072Z,96.30
2023-05-05T10:28:22.965Z,95.80
2023-05-05T10:30:53.580Z,94.80
2023-05-05T10:33:55.929Z,94.10
2023-05-05T10:36:24.456Z,94.10
2023-05-05T10:38:56.814Z,94.70
2023-05-05T10:41:26.915Z,94.30
2023-05-05T10:43:57.421Z,94.60
2023-05-05T10:46:26.754Z,95.10
2023-05-05T10:49:19.764Z,95.40
2023-05-05T10:51:55.500Z,96.40
2023-05-05T10:54:43.281Z,96.30
2023-05-05T10:57:11.996Z,97.20
2023-05-05T10:59:38.973Z,97.60
2023-05-05T11:02:24.732Z,99.20
2023-05-05T11:05:23.732Z,99.90
2023-05-05T11:07:54.742Z,99.90
2023-05-05T11:10:22.960Z,99.90
2023-05-05T11:12:52.528Z,99.90
2023-05-05T11:15:30.678Z,99.90
2023-05-05T11:17:59.463Z,99.90
2023-05-05T11:20:35.913Z,99.90
2023-05-05T11:23:05.396Z,99.90
2023-05-05T11:25:35.571Z,99.90
2023-05-05T11:28:24.882Z,99.90
2023-05-05T11:30:58.526Z,99.90
2023-05-05T11:33:29.780Z,99.90
2023-05-05T11:36:05.968Z,99.90
2023-05-05T11:38:41.440Z,99.90
2023-05-05T11:41:10.876Z,99.90
2023-05-05T11:43:37.740Z,99.90
2023-05-05T11:46:15.193Z,99.90
2023-05-05T11:48:52.789Z,99.90
2023-05-05T11:51:22.311Z,99.90
2023-05-05T11:53:50.089Z,99.90
2023-05-05T11:56:21.654Z,99.90
2023-05-05T11:58:51.367Z,99.90
2023-05-05T12:01:18.058Z,99.90
2023-05-05T12:03:45.437Z,99.90
2023-05-05T12:06:15.596Z,99.90
2023-05-05T12:08:42.333Z,99.90
2023-05-05T12:11:11.702Z,99.90
2023-05-05T12:13:38.629Z,99.90
2023-05-05T12:16:19.823Z,99.90
2023-05-05T12:19:02.582Z,99.90
2023-05-05T12:21:31.589Z,99.90
2023-05-05T12:24:01.252Z,99.90
2023-05-05T12:26:28.896Z,99.90
2023-05-05T12:29:02.051Z,99.90
2023-05-05T12:31:35.976Z,99.90
2023-05-05T12:34:06.405Z,99.90
2023-05-05T12:36:33.925Z,99.90
2023-05-05T12:39:00.828Z,99.90
2023-05-05T12:41:28.186Z,99.90
2023-05-05T12:43:59.230Z,99.90
2023-05-05T12:46:31.908Z,99.90
2023-05-05T12:49:05.081Z,99.90
2023-05-05T12:51:34.925Z,99.90
2023-05-05T12:54:12.179Z,99.90
2023-05-05T12:56:41.063Z,99.90
2023-05-05T12:59:11.799Z,99.90
2023-05-05T13:02:01.512Z,99.90
2023-05-05T13:04:29.168Z,99.90
2023-05-05T13:07:14.949Z,99.90
2023-05-05T13:09:42.006Z,99.90
2023-05-05T13:12:16.436Z,99.90
2023-05-05T13:14:46.669Z,99.90
2023-05-05T13:17:16.523Z,99.90
2023-05-05T13:19:46.072Z,99.90
2023-05-05T13:22:13.300Z,99.90
2023-05-05T13:24:51.548Z,99.90
2023-05-05T13:27:19.132Z,99.90
2023-05-05T13:29:46.103Z,99.90
2023-05-05T13:32:13.610Z,99.90
2023-05-05T13:34:44.001Z,99.90
2023-05-05T13:37:13.368Z,99.90
2023-05-05T13:39:42.733Z,99.90
2023-05-05T13:42:11.620Z,99.90
2023-05-05T13:44:38.355Z,99.90
2023-05-05T13:47:05.474Z,99.90
2023-05-05T13:49:37.206Z,99.90
2023-05-05T13:52:06.373Z,99.90
2023-05-05T13:54:35.428Z,99.90
2023-05-05T13:57:04.745Z,99.90
2023-05-05T13:59:31.489Z,99.90
2023-05-05T14:01:58.850Z,99.90
2023-05-05T14:04:28.099Z,99.90
2023-05-05T14:06:54.809Z,99.90
2023-05-05T14:09:21.510Z,99.90
2023-05-05T14:11:50.558Z,99.90
2023-05-05T14:14:17.860Z,99.90
2023-05-05T14:16:44.533Z,99.90
2023-05-05T14:19:13.508Z,99.90
2023-05-05T14:21:42.392Z,99.90
2023-05-05T14:24:11.294Z,99.90
2023-05-05T14:26:37.938Z,99.90
2023-05-05T14:29:07.038Z,99.90
2023-05-05T14:31:36.662Z,99.90
2023-05-05T14:34:03.500Z,99.90
2023-05-05T14:36:32.638Z,99.90
2023-05-05T14:38:59.326Z,99.90
2023-05-05T14:41:26.187Z,99.90
2023-05-05T14:43:57.067Z,99.90
2023-05-05T14:46:28.496Z,99.90
2023-05-05T14:48:55.161Z,99.90
2023-05-05T14:51:21.826Z,99.90
2023-05-05T14:53:51.053Z,99.90
2023-05-05T14:56:18.034Z,99.90
2023-05-05T14:58:44.679Z,99.90
2023-05-05T15:01:13.547Z,99.90
2023-05-05T15:03:40.568Z,99.90
2023-05-05T15:06:08.315Z,99.90
2023-05-05T15:08:35.012Z,99.90
2023-05-05T15:11:01.707Z,99.90
2023-05-05T15:13:31.239Z,99.90
2023-05-05T15:15:57.977Z,99.90
2023-05-05T15:18:24.719Z,99.90
2023-05-05T15:20:51.381Z,99.90
2023-05-05T15:23:18.024Z,99.90
2023-05-05T15:25:47.132Z,99.90
2023-05-05T15:28:13.787Z,99.90
2023-05-05T15:30:42.988Z,99.90
2023-05-05T15:33:09.633Z,99.90
2023-05-05T15:35:36.368Z,99.90
2023-05-05T15:38:05.181Z,99.90
2023-05-05T15:40:34.286Z,99.90
2023-05-05T15:43:00.899Z,99.90
2023-05-05T15:45:27.542Z,99.90
2023-05-05T15:47:58.909Z,99.90
2023-05-05T15:50:25.904Z,99.90
2023-05-05T15:52:52.620Z,99.90
2023-05-05T15:55:19.282Z,99.90
2023-05-05T15:57:45.979Z,99.90
2023-05-05T16:00:13.535Z,99.90
2023-05-05T16:02:40.346Z,99.90
2023-05-05T16:05:08.190Z,99.90
2023-05-05T16:07:34.998Z,99.90
2023-05-05T16:10:04.058Z,99.90
2023-05-05T16:12:33.144Z,99.90
2023-05-05T16:15:01.960Z,99.90
2023-05-05T16:17:28.616Z,99.90
2023-05-05T16:19:57.436Z,99.90
2023-05-05T16:22:24.098Z,99.90
2023-05-05T16:24:50.726Z,99.90
2023-05-05T16:27:17.475Z,99.90
2023-05-05T16:29:44.221Z,99.90
2023-05-05T16:32:11.013Z,99.90
2023-05-05T16:34:37.649Z,99.90
2023-05-05T16:37:06.681Z,99.90
2023-05-05T16:39:40.018Z,99.90
2023-05-05T16:42:09.221Z,99.90
2023-05-05T16:44:38.354Z,99.90
2023-05-05T16:47:09.519Z,99.90
2023-05-05T16:49:36.365Z,99.90
2023-05-05T16:52:03.064Z,99.90
2023-05-05T16:54:32.622Z,99.90
2023-05-05T16:57:02.279Z,99.90
2023-05-05T16:59:31.712Z,99.90
2023-05-05T17:01:58.495Z,99.90
2023-05-05T17:04:29.981Z,99.90
2023-05-05T17:06:59.091Z,99.90
2023-05-05T17:09:25.874Z,99.90
2023-05-05T17:11:52.614Z,99.90
2023-05-05T17:14:21.787Z,99.90
2023-05-05T17:16:48.452Z,99.90
2023-05-05T17:19:19.868Z,99.90
2023-05-05T17:21:46.514Z,99.90
2023-05-05T17:24:13.141Z,99.90
2023-05-05T17:26:44.546Z,99.90
2023-05-05T17:29:12.948Z,99.90
2023-05-05T17:31:39.822Z,99.90
2023-05-05T17:34:06.482Z,99.90
2023-05-05T17:36:35.478Z,99.90
2023-05-05T17:39:05.816Z,99.90
2023-05-05T17:41:34.686Z,99.90
2023-05-05T17:44:01.361Z,99.90
2023-05-05T17:46:28.385Z,99.90
2023-05-05T17:48:55.558Z,99.90
2023-05-05T17:51:24.455Z,99.90
2023-05-05T17:53:53.222Z,99.90
2023-05-05T17:56:24.337Z,99.90
2023-05-05T17:58:56.018Z,99.90
2023-05-05T18:01:24.127Z,99.90
2023-05-05T18:03:53.404Z,99.90
2023-05-05T18:06:20.217Z,99.90
2023-05-05T18:08:46.934Z,99.90
2023-05-05T18:11:13.672Z,99.90
2023-05-05T18:13:40.395Z,99.90
2023-05-05T18:16:09.477Z,99.90
2023-05-05T18:18:38.827Z,99.90
2023-05-05T18:21:05.587Z,99.90
2023-05-05T18:23:36.947Z,99.90
2023-05-05T18:26:05.998Z,99.90
2023-05-05T18:28:32.656Z,99.90
2023-05-05T18:30:59.323Z,99.90
2023-05-05T18:33:26.519Z,99.90
2023-05-05T18:35:56.451Z,99.90
2023-05-05T18:38:25.304Z,99.90
2023-05-05T18:40:51.924Z,99.90
2023-05-05T18:43:21.040Z,99.90
2023-05-05T18:45:50.071Z,99.90
2023-05-05T18:48:16.734Z,99.90
2023-05-05T18:50:43.375Z,99.90
2023-05-05T18:53:14.685Z,99.90
2023-05-05T18:55:43.266Z,99.90
2023-05-05T18:58:09.997Z,99.90
2023-05-05T19:00:38.939Z,99.90
2023-05-05T19:03:08.111Z,99.90
2023-05-05T19:05:39.780Z,99.90
2023-05-05T19:08:09.163Z,99.90
2023-05-05T19:10:35.870Z,99.90
2023-05-05T19:13:02.517Z,99.90
2023-05-05T19:15:32.340Z,99.90
2023-05-05T19:17:59.464Z,99.90
2023-05-05T19:20:31.555Z,99.90
2023-05-05T19:23:04.319Z,99.90
2023-05-05T19:25:31.398Z,99.90
2023-05-05T19:28:00.630Z,99.90
2023-05-05T19:30:27.436Z,99.90
2023-05-05T19:32:54.274Z,99.90
2023-05-05T19:35:21.160Z,99.90
2023-05-05T19:37:47.893Z,99.90
2023-05-05T19:40:14.578Z,99.90
2023-05-05T19:42:41.280Z,99.90
2023-05-05T19:45:08.333Z,99.90
2023-05-05T19:47:35.800Z,99.90
2023-05-05T19:50:04.959Z,99.90
2023-05-05T19:52:31.624Z,99.90
2023-05-05T19:54:59.005Z,99.90
2023-05-05T19:57:28.109Z,99.90
2023-05-05T19:59:54.760Z,99.90
2023-05-05T20:02:22.059Z,99.90
2023-05-05T20:04:51.190Z,99.90
2023-05-05T20:07:21.102Z,99.90
2023-05-05T20:09:47.772Z,99.90
2023-05-05T20:12:14.576Z,99.90
2023-05-05T20:14:41.554Z,99.90
2023-05-05T20:17:08.259Z,99.90
2023-05-05T20:19:34.880Z,99.90
2023-05-05T20:22:01.530Z,99.90
2023-05-05T20:24:30.504Z,99.90
2023-05-05T20:26:57.143Z,99.90
2023-05-05T20:29:28.481Z,99.90
2023-05-05T20:31:55.240Z,99.90
2023-05-05T20:34:27.644Z,99.90
2023-05-05T20:36:54.544Z,99.90
2023-05-05T20:39:21.217Z,99.90
2023-05-05T20:41:51.372Z,99.90
2023-05-05T20:44:20.712Z,99.90
2023-05-05T20:46:47.465Z,99.90
2023-05-05T20:49:14.085Z,99.90
2023-05-05T20:51:40.712Z,99.90
2023-05-05T20:54:07.422Z,99.90
2023-05-05T20:56:34.092Z,99.90
2023-05-05T20:59:05.311Z,99.90
2023-05-05T21:01:36.672Z,99.90
2023-05-05T21:04:07.898Z,99.90
2023-05-05T21:06:36.767Z,99.90
2023-05-05T21:09:06.624Z,99.90
2023-05-05T21:11:33.376Z,99.90
2023-05-05T21:14:00.021Z,99.90
2023-05-05T21:16:29.064Z,99.90
2023-05-05T21:18:55.758Z,99.90
2023-05-05T21:21:23.816Z,99.90
2023-05-05T21:23:50.690Z,99.90
2023-05-05T21:26:17.312Z,99.90
2023-05-05T21:28:43.944Z,99.90
2023-05-05T21:31:21.631Z,99.90
2023-05-05T21:33:48.790Z,99.90
2023-05-05T21:36:17.459Z,99.90
2023-05-05T21:38:46.679Z,99.90
2023-05-05T21:41:13.335Z,99.90
2023-05-05T21:43:39.976Z,99.90
2023-05-05T21:46:09.022Z,99.90
2023-05-05T21:48:38.600Z,99.90
2023-05-05T21:51:07.857Z,99.90
2023-05-05T21:53:37.696Z,99.90
2023-05-05T21:56:06.354Z,99.90
2023-05-05T21:58:35.475Z,99.90
2023-05-05T22:01:02.440Z,99.90
2023-05-05T22:03:34.143Z,99.90
2023-05-05T22:06:01.016Z,99.90
2023-05-05T22:08:27.657Z,99.90
2023-05-05T22:10:54.282Z,99.90
2023-05-05T22:13:23.211Z,99.90
2023-05-05T22:15:50.120Z,99.90
2023-05-05T22:18:21.485Z,99.90
2023-05-05T22:20:51.221Z,99.90
2023-05-05T22:23:17.851Z,99.90
2023-05-05T22:25:44.585Z,99.90
2023-05-05T22:28:11.631Z,99.90
2023-05-05T22:30:40.666Z,99.90
2023-05-05T22:33:07.446Z,99.90
2023-05-05T22:35:34.225Z,99.90
2023-05-05T22:38:01.418Z,99.90
2023-05-05T22:40:28.048Z,99.90
2023-05-05T22:42:57.304Z,99.90
2023-05-05T22:45:26.490Z,99.90
2023-05-05T22:47:57.740Z,99.90
2023-05-05T22:50:26.651Z,99.90
2023-05-05T22:52:53.310Z,99.90
2023-05-05T22:55:20.301Z,99.90
2023-05-05T22:57:47.355Z,99.90
2023-05-05T23:00:16.609Z,99.90
2023-05-05T23:02:45.488Z,99.90
2023-05-05T23:05:14.357Z,99.90
2023-05-05T23:07:43.201Z,99.90
2023-05-05T23:10:12.743Z,99.90
2023-05-05T23:12:39.429Z,99.90
2023-05-05T23:15:08.023Z,99.90
2023-05-05T23:17:34.984Z,99.90
2023-05-05T23:20:04.272Z,99.90
2023-05-05T23:22:30.897Z,99.90
2023-05-05T23:24:59.976Z,99.90
2023-05-05T23:27:28.750Z,99.90
2023-05-05T23:29:59.853Z,99.90
2023-05-05T23:32:28.758Z,99.90
2023-05-05T23:34:57.791Z,99.90
2023-05-05T23:37:29.413Z,99.90
2023-05-05T23:39:56.766Z,99.90
2023-05-05T23:42:24.362Z,99.90
2023-05-05T23:44:50.997Z,99.90
2023-05-05T23:47:19.921Z,99.90
2023-05-05T23:49:48.729Z,99.90
2023-05-05T23:52:15.444Z,99.90
2023-05-05T23:54:44.422Z,99.90
2023-05-05T23:57:11.276Z,99.90
2023-05-05T23:59:39.059Z,99.90
